createdAt,value
2017-10-11T00:00:01.697Z,11.60
2017-10-11T00:02:29.279Z,10.90
2017-10-11T00:04:56.939Z,11.77
2017-10-11T00:07:24.501Z,13.27
2017-10-11T00:09:52.082Z,11.77
2017-10-11T00:12:19.644Z,9.97
2017-10-11T00:14:47.200Z,11.20
2017-10-11T00:17:15.611Z,13.30
2017-10-11T00:19:43.285Z,10.33
2017-10-11T00:22:10.861Z,9.90
2017-10-11T00:24:39.221Z,12.90
2017-10-11T00:27:06.851Z,11.73
2017-10-11T00:29:34.438Z,10.00
2017-10-11T00:32:02.084Z,11.30
2017-10-11T00:34:29.660Z,10.70
2017-10-11T00:36:57.224Z,12.13
2017-10-11T00:39:24.830Z,10.77
2017-10-11T00:41:52.430Z,10.47
2017-10-11T00:44:19.984Z,9.20
2017-10-11T00:46:47.616Z,8.30
2017-10-11T00:49:15.934Z,8.43
2017-10-11T00:51:43.526Z,7.73
2017-10-11T00:54:11.158Z,8.27
2017-10-11T00:56:38.772Z,9.67
2017-10-11T00:59:06.367Z,8.40
2017-10-11T01:01:33.995Z,8.20
2017-10-11T01:04:02.346Z,9.07
2017-10-11T01:06:29.924Z,8.50
2017-10-11T01:08:57.530Z,6.73
2017-10-11T01:11:25.118Z,6.30
2017-10-11T01:13:52.745Z,7.63
2017-10-11T01:16:20.297Z,8.73
2017-10-11T01:18:48.696Z,8.87
2017-10-11T01:21:16.270Z,7.40
2017-10-11T01:23:43.935Z,7.03
2017-10-11T01:26:11.575Z,7.53
2017-10-11T01:28:39.146Z,8.43
2017-10-11T01:31:06.730Z,7.60
2017-10-11T01:33:34.328Z,8.73
2017-10-11T01:36:01.932Z,7.63
2017-10-11T01:38:29.527Z,7.63
2017-10-11T01:40:57.893Z,8.00
2017-10-11T01:43:25.456Z,8.60
2017-10-11T01:45:53.089Z,8.67
2017-10-11T01:48:20.748Z,8.67
2017-10-11T01:50:48.306Z,8.50
2017-10-11T01:53:15.890Z,7.13
2017-10-11T01:55:43.530Z,8.07
2017-10-11T01:58:11.132Z,6.90
2017-10-11T02:00:38.743Z,9.00
2017-10-11T02:03:06.357Z,7.40
2017-10-11T02:05:33.937Z,8.60
2017-10-11T02:08:02.281Z,8.00
2017-10-11T02:10:29.895Z,6.27
2017-10-11T02:12:57.506Z,7.70
2017-10-11T02:15:25.101Z,7.13
2017-10-11T02:17:53.444Z,8.30
2017-10-11T02:20:20.996Z,7.93
2017-10-11T02:22:48.605Z,8.53
2017-10-11T02:25:16.181Z,7.07
2017-10-11T02:27:43.789Z,7.83
2017-10-11T02:30:11.397Z,7.40
2017-10-11T02:32:38.960Z,7.77
2017-10-11T02:35:06.542Z,7.83
2017-10-11T02:37:34.150Z,7.90
2017-10-11T02:40:03.038Z,7.00
2017-10-11T02:42:31.402Z,8.33
2017-10-11T02:44:58.962Z,8.37
2017-10-11T02:47:26.576Z,7.83
2017-10-11T02:49:54.172Z,7.87
2017-10-11T02:52:21.758Z,7.77
2017-10-11T02:54:50.088Z,8.20
2017-10-11T02:57:17.683Z,7.30
2017-10-11T02:59:45.284Z,7.50
2017-10-11T03:02:12.880Z,8.53
2017-10-11T03:04:40.453Z,7.47
2017-10-11T03:07:08.013Z,7.80
2017-10-11T03:09:35.613Z,7.17
2017-10-11T03:12:03.202Z,6.40
2017-10-11T03:14:30.814Z,7.30
2017-10-11T03:16:59.142Z,8.50
2017-10-11T03:19:26.716Z,8.13
2017-10-11T03:21:55.074Z,7.17
2017-10-11T03:24:22.669Z,7.43
2017-10-11T03:26:50.243Z,6.97
2017-10-11T03:29:18.701Z,6.40
2017-10-11T03:31:46.288Z,6.30
2017-10-11T03:34:13.885Z,5.87
2017-10-11T03:36:41.496Z,6.97
2017-10-11T03:39:09.093Z,6.27
2017-10-11T03:41:36.657Z,6.70
2017-10-11T03:44:04.273Z,6.50
2017-10-11T03:46:31.826Z,6.50
2017-10-11T03:48:59.388Z,5.90
2017-10-11T03:51:26.949Z,6.77
2017-10-11T03:53:54.556Z,6.30
2017-10-11T03:56:22.150Z,6.53
2017-10-11T03:58:49.724Z,5.60
2017-10-11T04:01:17.328Z,6.07
2017-10-11T04:03:44.928Z,7.00
2017-10-11T04:06:12.506Z,6.00
2017-10-11T04:08:40.116Z,5.13
2017-10-11T04:11:07.733Z,6.60
2017-10-11T04:13:35.307Z,5.33
2017-10-11T04:16:02.893Z,7.30
2017-10-11T04:18:31.329Z,7.03
2017-10-11T04:20:58.971Z,8.33
2017-10-11T04:23:26.593Z,8.30
2017-10-11T04:25:54.966Z,8.07
2017-10-11T04:28:23.316Z,7.83
2017-10-11T04:30:50.967Z,8.57
2017-10-11T04:33:18.573Z,9.50
2017-10-11T04:35:47.020Z,9.53
2017-10-11T04:38:14.690Z,8.57
2017-10-11T04:40:42.417Z,8.70
2017-10-11T04:43:10.015Z,9.00
2017-10-11T04:45:37.587Z,8.50
2017-10-11T04:48:05.186Z,8.07
2017-10-11T04:50:32.749Z,8.90
2017-10-11T04:53:00.477Z,8.20
2017-10-11T04:55:28.053Z,8.70
2017-10-11T04:57:55.668Z,7.60
2017-10-11T05:00:23.259Z,7.50
2017-10-11T05:02:50.860Z,6.77
2017-10-11T05:05:18.438Z,7.70
2017-10-11T05:07:46.034Z,8.50
2017-10-11T05:10:14.379Z,8.10
2017-10-11T05:12:41.958Z,8.10
2017-10-11T05:15:09.504Z,7.93
2017-10-11T05:17:37.100Z,7.60
2017-10-11T05:20:05.445Z,8.70
2017-10-11T05:22:33.054Z,8.00
2017-10-11T05:25:00.641Z,8.13
2017-10-11T05:27:28.202Z,7.77
2017-10-11T05:29:55.805Z,8.70
2017-10-11T05:32:23.394Z,7.73
2017-10-11T05:34:50.941Z,8.70
2017-10-11T05:37:19.272Z,8.40
2017-10-11T05:39:46.826Z,8.80
2017-10-11T05:42:14.399Z,6.90
2017-10-11T05:44:41.974Z,8.07
2017-10-11T05:47:09.568Z,8.47
2017-10-11T05:49:37.161Z,8.70
2017-10-11T05:52:04.759Z,8.07
2017-10-11T05:54:32.330Z,7.00
2017-10-11T05:56:59.948Z,6.70
2017-10-11T05:59:27.525Z,8.17
2017-10-11T06:01:55.080Z,6.63
2017-10-11T06:04:23.418Z,6.80
2017-10-11T06:06:50.997Z,6.87
2017-10-11T06:09:18.550Z,6.30
2017-10-11T06:11:46.133Z,6.93
2017-10-11T06:14:13.693Z,7.50
2017-10-11T06:16:41.251Z,7.20
2017-10-11T06:19:08.858Z,7.30
2017-10-11T06:21:37.171Z,7.17
2017-10-11T06:24:04.770Z,6.30
2017-10-11T06:26:32.380Z,4.60
2017-10-11T06:28:59.956Z,6.10
2017-10-11T06:31:27.516Z,6.77
2017-10-11T06:33:55.135Z,6.57
2017-10-11T06:36:23.486Z,6.97
2017-10-11T06:38:51.853Z,5.73
2017-10-11T06:41:19.486Z,6.07
2017-10-11T06:43:47.054Z,6.67
2017-10-11T06:46:15.403Z,7.10
2017-10-11T06:48:42.988Z,5.93
2017-10-11T06:51:10.583Z,6.13
2017-10-11T06:53:38.166Z,6.30
2017-10-11T06:56:05.846Z,6.53
2017-10-11T06:58:34.276Z,6.53
2017-10-11T07:01:01.825Z,6.40
2017-10-11T07:03:29.421Z,6.80
2017-10-11T07:05:57.810Z,5.50
2017-10-11T07:08:26.178Z,6.30
2017-10-11T07:10:54.529Z,6.60
2017-10-11T07:13:22.120Z,5.20
2017-10-11T07:15:50.480Z,4.93
2017-10-11T07:18:18.070Z,5.27
2017-10-11T07:20:46.395Z,5.47
2017-10-11T07:23:13.945Z,5.53
2017-10-11T07:25:41.570Z,6.00
2017-10-11T07:28:09.154Z,4.43
2017-10-11T07:30:36.760Z,4.20
2017-10-11T07:33:04.340Z,5.00
2017-10-11T07:35:32.734Z,4.10
2017-10-11T07:38:00.290Z,4.77
2017-10-11T07:40:27.868Z,4.30
2017-10-11T07:42:55.483Z,4.20
2017-10-11T07:45:23.082Z,3.90
2017-10-11T07:47:50.665Z,3.57
2017-10-11T07:50:18.234Z,4.60
2017-10-11T07:52:45.811Z,6.30
2017-10-11T07:55:13.406Z,3.80
2017-10-11T07:57:40.982Z,3.43
2017-10-11T08:00:08.565Z,3.97
2017-10-11T08:02:36.137Z,4.43
2017-10-11T08:05:03.737Z,5.80
2017-10-11T08:07:32.119Z,4.87
2017-10-11T08:10:00.701Z,3.93
2017-10-11T08:12:29.025Z,3.80
2017-10-11T08:14:56.583Z,3.60
2017-10-11T08:17:24.192Z,4.97
2017-10-11T08:19:52.560Z,12.93
2017-10-11T08:22:20.188Z,4.40
2017-10-11T08:24:47.794Z,3.10
2017-10-11T08:27:16.170Z,3.93
2017-10-11T08:29:44.534Z,4.60
2017-10-11T08:32:12.158Z,3.50
2017-10-11T08:34:39.735Z,3.53
2017-10-11T08:37:07.330Z,3.43
2017-10-11T08:39:35.661Z,3.70
2017-10-11T08:42:03.233Z,4.13
2017-10-11T08:44:30.793Z,4.37
2017-10-11T08:46:58.384Z,3.90
2017-10-11T08:49:25.964Z,3.60
2017-10-11T08:51:53.539Z,4.07
2017-10-11T08:54:21.130Z,4.67
2017-10-11T08:56:48.754Z,3.93
2017-10-11T08:59:16.349Z,4.10
2017-10-11T09:01:43.944Z,3.90
2017-10-11T09:04:11.541Z,3.83
2017-10-11T09:06:39.136Z,3.83
2017-10-11T09:09:06.759Z,3.33
2017-10-11T09:11:34.318Z,4.27
2017-10-11T09:14:01.891Z,4.30
2017-10-11T09:16:29.559Z,4.17
2017-10-11T09:18:57.156Z,3.20
2017-10-11T09:21:24.774Z,4.27
2017-10-11T09:23:52.362Z,3.73
2017-10-11T09:26:19.922Z,2.63
2017-10-11T09:28:47.526Z,3.47
2017-10-11T09:31:15.870Z,2.97
2017-10-11T09:33:43.505Z,3.60
2017-10-11T09:36:11.118Z,3.50
2017-10-11T09:38:39.504Z,2.87
2017-10-11T09:41:07.813Z,3.00
2017-10-11T09:43:35.414Z,3.80
2017-10-11T09:46:03.028Z,3.50
2017-10-11T09:48:30.585Z,3.20
2017-10-11T09:50:58.189Z,3.20
2017-10-11T09:53:25.744Z,3.70
2017-10-11T09:55:53.306Z,3.60
2017-10-11T09:58:20.864Z,4.50
2017-10-11T10:00:48.508Z,2.43
2017-10-11T10:03:16.086Z,3.50
2017-10-11T10:05:43.698Z,3.67
2017-10-11T10:08:11.312Z,2.80
2017-10-11T10:10:38.932Z,2.70
2017-10-11T10:13:06.521Z,3.03
2017-10-11T10:15:34.095Z,2.30
2017-10-11T10:18:01.681Z,2.67
2017-10-11T10:20:30.027Z,3.00
2017-10-11T10:22:57.602Z,3.03
2017-10-11T10:25:25.216Z,2.30
2017-10-11T10:27:52.849Z,2.50
2017-10-11T10:30:21.169Z,2.50
2017-10-11T10:32:48.797Z,2.50
2017-10-11T10:35:16.427Z,2.00
2017-10-11T10:37:44.793Z,2.73
2017-10-11T10:40:12.396Z,2.30
2017-10-11T10:42:39.973Z,2.53
2017-10-11T10:45:07.609Z,2.00
2017-10-11T10:47:35.196Z,1.80
2017-10-11T10:50:02.806Z,1.60
2017-10-11T10:52:30.452Z,1.10
2017-10-11T10:54:58.106Z,1.60
2017-10-11T10:57:25.724Z,1.40
2017-10-11T10:59:53.327Z,1.93
2017-10-11T11:02:20.894Z,1.13
2017-10-11T11:04:48.525Z,2.97
2017-10-11T11:07:16.105Z,1.33
2017-10-11T11:09:44.419Z,1.67
2017-10-11T11:12:12.054Z,1.83
2017-10-11T11:14:39.620Z,1.23
2017-10-11T11:17:07.187Z,1.70
2017-10-11T11:19:34.818Z,1.50
2017-10-11T11:22:02.383Z,1.80
2017-10-11T11:24:30.002Z,1.80
2017-10-11T11:26:58.366Z,2.23
2017-10-11T11:29:26.710Z,2.13
2017-10-11T11:31:54.310Z,2.27
2017-10-11T11:34:21.884Z,2.20
2017-10-11T11:36:49.470Z,2.93
2017-10-11T11:39:17.071Z,2.50
2017-10-11T11:41:44.718Z,2.63
2017-10-11T11:44:12.315Z,2.53
2017-10-11T11:46:39.876Z,3.30
2017-10-11T11:49:07.477Z,3.20
2017-10-11T11:51:35.064Z,2.97
2017-10-11T11:54:02.651Z,2.80
2017-10-11T11:56:30.236Z,3.60
2017-10-11T11:58:57.837Z,4.30
2017-10-11T12:01:25.409Z,3.20
2017-10-11T12:03:53.023Z,3.70
2017-10-11T12:06:20.613Z,2.97
2017-10-11T12:08:48.177Z,3.43
2017-10-11T12:11:15.758Z,4.80
2017-10-11T12:13:43.321Z,4.47
2017-10-11T12:16:10.953Z,3.27
2017-10-11T12:18:38.556Z,4.50
2017-10-11T12:21:06.933Z,5.60
2017-10-11T12:23:35.272Z,4.60
2017-10-11T12:26:02.898Z,5.40
2017-10-11T12:28:30.486Z,4.57
2017-10-11T12:30:58.059Z,4.80
2017-10-11T12:33:25.645Z,5.17
2017-10-11T12:35:53.991Z,3.90
2017-10-11T12:38:21.657Z,4.00
2017-10-11T12:40:49.256Z,4.30
2017-10-11T12:43:17.589Z,5.03
2017-10-11T12:45:45.144Z,5.67
2017-10-11T12:48:12.709Z,5.10
2017-10-11T12:50:40.425Z,4.97
2017-10-11T12:53:07.983Z,4.63
2017-10-11T12:55:35.592Z,5.17
2017-10-11T12:58:03.959Z,3.80
2017-10-11T13:00:31.544Z,4.90
2017-10-11T13:02:59.121Z,4.47
2017-10-11T13:05:27.489Z,4.83
2017-10-11T13:07:55.049Z,4.43
2017-10-11T13:10:22.626Z,4.50
2017-10-11T13:12:50.223Z,4.73
2017-10-11T13:15:17.854Z,5.90
2017-10-11T13:17:46.200Z,4.37
2017-10-11T13:20:13.794Z,5.60
2017-10-11T13:22:41.419Z,4.60
2017-10-11T13:25:09.065Z,4.57
2017-10-11T13:27:36.664Z,7.20
2017-10-11T13:30:05.070Z,4.43
2017-10-11T13:32:32.691Z,4.77
2017-10-11T13:35:00.296Z,5.40
2017-10-11T13:37:27.856Z,4.83
2017-10-11T13:39:55.419Z,3.77
2017-10-11T13:42:23.078Z,4.10
2017-10-11T13:44:50.685Z,4.20
2017-10-11T13:47:18.291Z,3.90
2017-10-11T13:49:45.885Z,3.97
2017-10-11T13:52:13.455Z,4.20
2017-10-11T13:54:41.037Z,4.67
2017-10-11T13:57:08.630Z,3.23
2017-10-11T13:59:36.194Z,4.27
2017-10-11T14:02:03.791Z,3.53
2017-10-11T14:04:31.381Z,4.57
2017-10-11T14:06:59.737Z,3.83
2017-10-11T14:09:27.306Z,3.63
2017-10-11T14:11:54.891Z,5.23
2017-10-11T14:14:23.272Z,4.80
2017-10-11T14:16:51.811Z,4.50
2017-10-11T14:19:19.397Z,3.93
2017-10-11T14:21:47.013Z,4.47
2017-10-11T14:24:14.581Z,3.83
2017-10-11T14:26:42.465Z,4.47
2017-10-11T14:29:10.118Z,3.73
2017-10-11T14:31:37.667Z,4.17
2017-10-11T14:34:05.250Z,4.57
2017-10-11T14:36:32.837Z,4.90
2017-10-11T14:39:00.494Z,4.40
2017-10-11T14:41:28.917Z,4.80
2017-10-11T14:43:56.547Z,4.50
2017-10-11T14:46:24.928Z,4.13
2017-10-11T14:48:52.547Z,4.23
2017-10-11T14:51:20.253Z,5.10
2017-10-11T14:53:47.822Z,5.50
2017-10-11T14:56:15.422Z,7.13
2017-10-11T14:58:43.066Z,4.40
2017-10-11T15:01:10.685Z,4.90
2017-10-11T15:03:39.052Z,10.67
2017-10-11T15:06:06.649Z,8.30
2017-10-11T15:08:34.285Z,14.40
2017-10-11T15:11:01.892Z,10.33
2017-10-11T15:13:29.485Z,15.10
2017-10-11T15:15:57.137Z,7.30
2017-10-11T15:18:24.738Z,13.17
2017-10-11T15:20:52.323Z,5.13
2017-10-11T15:23:19.936Z,8.53
2017-10-11T15:25:47.506Z,5.70
2017-10-11T15:28:15.835Z,4.00
2017-10-11T15:30:43.446Z,5.43
2017-10-11T15:33:11.799Z,3.90
2017-10-11T15:35:39.416Z,3.40
2017-10-11T15:38:07.625Z,5.03
2017-10-11T15:40:35.960Z,4.80
2017-10-11T15:43:03.588Z,7.70
2017-10-11T15:45:31.195Z,4.73
2017-10-11T15:47:58.782Z,4.40
2017-10-11T15:50:26.405Z,4.63
2017-10-11T15:52:54.023Z,4.87
2017-10-11T15:55:21.608Z,6.27
2017-10-11T15:57:49.228Z,5.43
2017-10-11T16:00:17.652Z,4.40
2017-10-11T16:02:45.988Z,6.27
2017-10-11T16:05:13.607Z,7.00
2017-10-11T16:07:41.219Z,12.53
2017-10-11T16:10:08.862Z,5.17
2017-10-11T16:12:36.424Z,4.10
2017-10-11T16:15:04.074Z,5.07
2017-10-11T16:17:31.637Z,4.90
2017-10-11T16:19:59.246Z,4.57
2017-10-11T16:22:27.647Z,5.60
2017-10-11T16:24:55.263Z,5.73
2017-10-11T16:27:22.863Z,23.67
2017-10-11T16:29:50.485Z,5.43
2017-10-11T16:32:18.114Z,7.40
2017-10-11T16:34:45.705Z,7.20
2017-10-11T16:37:13.363Z,24.83
2017-10-11T16:39:40.968Z,5.73
2017-10-11T16:42:08.600Z,6.33
2017-10-11T16:44:36.988Z,4.90
2017-10-11T16:47:04.607Z,5.40
2017-10-11T16:49:32.273Z,4.63
2017-10-11T16:51:59.914Z,4.97
2017-10-11T16:54:27.573Z,6.00
2017-10-11T16:56:55.230Z,6.07
2017-10-11T16:59:22.987Z,7.27
2017-10-11T17:01:51.035Z,6.10
2017-10-11T17:04:19.398Z,5.53
2017-10-11T17:06:47.076Z,5.30
2017-10-11T17:09:14.731Z,5.00
2017-10-11T17:11:43.119Z,4.70
2017-10-11T17:16:45.542Z,5.00
2017-10-11T17:19:13.175Z,5.20
2017-10-11T17:21:40.793Z,7.60
2017-10-11T17:24:08.405Z,5.40
2017-10-11T17:26:36.803Z,5.13
2017-10-11T17:29:04.415Z,5.27
2017-10-11T17:31:32.024Z,5.80
2017-10-11T17:33:59.669Z,5.23
2017-10-11T17:36:27.270Z,4.80
2017-10-11T17:38:54.884Z,5.20
2017-10-11T17:41:22.501Z,4.93
2017-10-11T17:43:50.122Z,5.40
2017-10-11T17:46:17.791Z,5.27
2017-10-11T17:48:45.389Z,4.90
2017-10-11T17:51:13.048Z,6.57
2017-10-11T17:53:40.862Z,6.00
2017-10-11T17:56:09.254Z,5.47
2017-10-11T17:58:36.831Z,5.07
2017-10-11T18:01:04.511Z,4.73
2017-10-11T18:03:32.104Z,5.73
2017-10-11T18:05:59.786Z,5.37
2017-10-11T18:08:27.905Z,5.20
2017-10-11T18:10:55.509Z,5.83
2017-10-11T18:13:23.911Z,5.60
2017-10-11T18:15:51.596Z,5.90
2017-10-11T18:18:19.389Z,5.10
2017-10-11T18:20:47.023Z,6.97
2017-10-11T18:23:14.668Z,6.97
2017-10-11T18:25:42.342Z,5.07
2017-10-11T18:28:10.069Z,5.10
2017-10-11T18:30:37.737Z,5.50
2017-10-11T18:33:06.218Z,9.60
2017-10-11T18:35:34.683Z,6.17
2017-10-11T18:38:02.302Z,7.30
2017-10-11T18:40:29.868Z,7.53
2017-10-11T18:42:58.278Z,5.83
2017-10-11T18:45:25.851Z,6.13
2017-10-11T18:47:54.245Z,5.53
2017-10-11T18:50:21.838Z,5.50
2017-10-11T18:52:49.458Z,5.10
2017-10-11T18:55:17.118Z,4.70
2017-10-11T18:57:44.823Z,4.67
2017-10-11T19:00:12.471Z,5.50
2017-10-11T19:02:40.055Z,4.80
2017-10-11T19:05:07.654Z,5.10
2017-10-11T19:07:35.745Z,5.57
2017-10-11T19:10:03.477Z,4.83
2017-10-11T19:12:31.950Z,5.30
2017-10-11T19:14:59.586Z,5.87
2017-10-11T19:17:27.204Z,6.13
2017-10-11T19:19:55.599Z,8.37
2017-10-11T19:22:23.182Z,6.57
2017-10-11T19:24:50.881Z,5.57
2017-10-11T19:27:18.561Z,6.10
2017-10-11T19:29:46.995Z,5.30
2017-10-11T19:32:15.131Z,6.27
2017-10-11T19:34:43.010Z,6.40
2017-10-11T19:37:10.597Z,5.67
2017-10-11T19:39:38.262Z,5.10
2017-10-11T19:42:05.926Z,6.30
2017-10-11T19:44:33.620Z,5.43
2017-10-11T19:47:01.996Z,4.90
2017-10-11T19:49:29.662Z,5.57
2017-10-11T19:51:58.029Z,5.17
2017-10-11T19:54:25.682Z,6.20
2017-10-11T19:56:53.325Z,4.57
2017-10-11T19:59:20.927Z,3.93
2017-10-11T20:01:48.957Z,4.72
2017-10-11T20:04:16.585Z,4.43
2017-10-11T20:06:44.201Z,4.47
2017-10-11T20:09:11.796Z,4.30
2017-10-11T20:11:39.388Z,4.17
2017-10-11T20:14:06.974Z,4.50
2017-10-11T20:16:34.531Z,4.60
2017-10-11T20:19:02.189Z,4.73
2017-10-11T20:21:29.853Z,4.20
2017-10-11T20:23:57.414Z,3.87
2017-10-11T20:26:25.052Z,3.80
2017-10-11T20:28:53.572Z,4.00
2017-10-11T20:31:21.197Z,3.50
2017-10-11T20:33:48.889Z,3.97
2017-10-11T20:36:16.486Z,3.43
2017-10-11T20:38:44.104Z,3.93
2017-10-11T20:41:11.687Z,2.90
2017-10-11T20:43:40.018Z,3.83
2017-10-11T20:46:07.605Z,3.83
2017-10-11T20:48:35.243Z,3.27
2017-10-11T20:51:02.815Z,4.10
2017-10-11T20:53:30.464Z,3.80
2017-10-11T20:55:58.306Z,3.77
2017-10-11T20:58:25.890Z,3.03
2017-10-11T21:00:53.557Z,4.00
2017-10-11T21:03:21.150Z,4.60
2017-10-11T21:05:48.728Z,3.60
2017-10-11T21:08:17.084Z,4.33
2017-10-11T21:10:44.698Z,3.87
2017-10-11T21:13:12.392Z,3.53
2017-10-11T21:15:39.976Z,4.27
2017-10-11T21:18:08.336Z,3.90
2017-10-11T21:20:35.971Z,3.77
2017-10-11T21:23:03.655Z,3.43
2017-10-11T21:25:31.276Z,3.57
2017-10-11T21:27:58.894Z,3.43
2017-10-11T21:30:27.280Z,4.00
2017-10-11T21:32:54.909Z,3.10
2017-10-11T21:35:22.508Z,4.07
2017-10-11T21:37:50.144Z,3.80
2017-10-11T21:40:17.764Z,3.60
2017-10-11T21:42:45.364Z,3.50
2017-10-11T21:45:13.063Z,4.50
2017-10-11T21:47:40.648Z,4.07
2017-10-11T21:50:08.254Z,4.43
2017-10-11T21:52:35.899Z,3.10
2017-10-11T21:55:03.564Z,3.30
2017-10-11T21:57:31.201Z,3.60
2017-10-11T21:59:58.780Z,2.93
2017-10-11T22:02:26.382Z,3.83
2017-10-11T22:04:54.816Z,3.20
2017-10-11T22:07:22.475Z,3.03
2017-10-11T22:09:50.091Z,4.43
2017-10-11T22:12:17.705Z,3.60
2017-10-11T22:14:45.298Z,3.58
2017-10-11T22:17:13.036Z,3.07
2017-10-11T22:19:40.650Z,3.07
2017-10-11T22:22:08.318Z,3.90
2017-10-11T22:24:35.933Z,3.40
2017-10-11T22:27:03.485Z,2.57
2017-10-11T22:29:31.121Z,3.30
2017-10-11T22:31:58.742Z,3.17
2017-10-11T22:34:27.082Z,2.70
2017-10-11T22:36:54.721Z,2.60
2017-10-11T22:39:22.311Z,2.90
2017-10-11T22:41:49.905Z,2.90
2017-10-11T22:44:17.509Z,2.20
2017-10-11T22:46:45.099Z,2.20
2017-10-11T22:49:12.914Z,3.10
2017-10-11T22:51:40.538Z,2.37
2017-10-11T22:54:08.159Z,2.43
2017-10-11T22:56:35.783Z,2.20
2017-10-11T22:59:03.415Z,1.83
2017-10-11T23:01:30.994Z,2.40
2017-10-11T23:03:59.331Z,2.00
2017-10-11T23:06:26.955Z,2.53
2017-10-11T23:08:54.530Z,2.60
2017-10-11T23:11:23.035Z,2.30
2017-10-11T23:13:50.650Z,2.50
2017-10-11T23:16:18.256Z,2.80
2017-10-11T23:18:45.856Z,2.93
2017-10-11T23:21:13.443Z,2.80
2017-10-11T23:23:41.294Z,2.93
2017-10-11T23:26:08.857Z,2.10
2017-10-11T23:28:36.459Z,2.20
2017-10-11T23:31:04.060Z,2.40
2017-10-11T23:33:32.868Z,2.30
2017-10-11T23:36:00.474Z,2.27
2017-10-11T23:38:28.050Z,2.20
2017-10-11T23:40:55.641Z,2.60
2017-10-11T23:43:23.268Z,2.17
2017-10-11T23:45:50.883Z,2.50
2017-10-11T23:48:18.738Z,2.43
2017-10-11T23:50:46.369Z,2.00
2017-10-11T23:53:14.735Z,2.27
2017-10-11T23:55:42.297Z,2.50
2017-10-11T23:58:09.931Z,2.00
